Edna T. Gattle — WDD2528 — position and weather

sailwx.info

Track history (hours):
 
Tides and Currents Weather Stations Pressure Air Temp Water Temp Dewpoint Dewpoint Depression Visibility Wind Speed Wind Dir Waves Ship Positions

Edna T. Gattle

Owner: Terral RiverService, Inc., Lake Providence, LA. More information available from US FCC via Universal Licensing System and Coast Guard Vessel Documentation Center.

Last reported at 2017-Jan-20 13:30 UTC. Time now 2017-Jan-20 20:07 UTC.
Position N 29°32' W 090°53'.

Length 33 m; draft 2.8 m.

Type: Towing. MMSI: 367116420.

Date/timePositionNaut miles runAvg speedWind from/ knotsBaromVisibWave heightAir tempDewpointWater temp
2017-Jan-20 13:30N 29°32' W 090°53'7 7.4
2017-Jan-20 12:33N 29°34' W 090°45'4 4.4
2017-Jan-20 11:33N 29°37' W 090°41'0 0.0
2017-Jan-20 10:33N 29°37' W 090°41'0 0.0
2017-Jan-20 09:33N 29°37' W 090°41'1 1.5
2017-Jan-20 08:33N 29°36' W 090°40'0 0.4
2017-Jan-20 07:33N 29°36' W 090°40'0 0.4
2017-Jan-20 06:33N 29°36' W 090°40'0 0.0
2017-Jan-20 05:33N 29°36' W 090°40'0 0.5
2017-Jan-20 04:33N 29°36' W 090°40'2 1.5
2017-Jan-20 03:33N 29°37' W 090°42'3 2.8
2017-Jan-20 02:33N 29°34' W 090°43'1 1.1
2017-Jan-20 01:33N 29°34' W 090°44'2 2.3
2017-Jan-20 00:33N 29°32' W 090°46'7 5.7
2017-Jan-19 23:19N 29°33' W 090°54'6 5.8
2017-Jan-19 22:18N 29°37' W 090°59'  
Track history (hours):
 
Tides and Currents Weather Stations Pressure Air Temp Water Temp Dewpoint Dewpoint Depression Visibility Wind Speed Wind Dir Waves Ship Positions

Edna T. Gattle

Owner: Terral RiverService, Inc., Lake Providence, LA. More information available from US FCC via Universal Licensing System and Coast Guard Vessel Documentation Center.

Last reported at 2017-Jan-20 13:30 UTC. Time now 2017-Jan-20 20:07 UTC.
Position N 29°32' W 090°53'.

Length 33 m; draft 2.8 m.

Type: Towing. MMSI: 367116420.

Date/timePositionNaut miles runAvg speedWind from/ knotsBaromVisibWave heightAir tempDewpointWater temp
2017-Jan-20 13:30N 29°32' W 090°53'7 7.4
2017-Jan-20 12:33N 29°34' W 090°45'4 4.4
2017-Jan-20 11:33N 29°37' W 090°41'0 0.0
2017-Jan-20 10:33N 29°37' W 090°41'0 0.0
2017-Jan-20 09:33N 29°37' W 090°41'1 1.5
2017-Jan-20 08:33N 29°36' W 090°40'0 0.4
2017-Jan-20 07:33N 29°36' W 090°40'0 0.4
2017-Jan-20 06:33N 29°36' W 090°40'0 0.0
2017-Jan-20 05:33N 29°36' W 090°40'0 0.5
2017-Jan-20 04:33N 29°36' W 090°40'2 1.5
2017-Jan-20 03:33N 29°37' W 090°42'3 2.8
2017-Jan-20 02:33N 29°34' W 090°43'1 1.1
2017-Jan-20 01:33N 29°34' W 090°44'2 2.3
2017-Jan-20 00:33N 29°32' W 090°46'7 5.7
2017-Jan-19 23:19N 29°33' W 090°54'6 5.8
2017-Jan-19 22:18N 29°37' W 090°59'  

Dump ship's entire track history